Historique des mesures à Cassis (13260), France
Quotidien Résumé Juin 25, 2021 Unités:  Métrique    US   Métrique/US
Quotidien Hebdomadaire Mensuel Annuel
  Maximum: Minimum: Moyenne:
Température: 30.5 °C 19.1 °C 24.8 °C
Point de rosée: 17.8 °C 11.7 °C 15 °C
Humidité: 66% 44% 55%
Vitesse du vent: 11.5km/h 0km/h 4.4km/h
Rafales: 23km/h - -
Vent- - WSW
Pression: 1011.5 hPa 1009.9 hPa -
Précipitations: 0.0 mm    
Historical Graphs
 
 
Mesures pour : Juin 25, 2021
Heure Temperature Point de rosée Pression Vent Vitesse du vent Rafales Humidité Pluie (par heure)
00:11 21.2 °C 12.9 °C 1011.5 hPa WNW 1.4 km/h 3.6 km/h 59% 0.0 mm
01:11 20.4 °C 12.9 °C 1011.1 hPa WNW 8.6 km/h 12.2 km/h 62% 0.0 mm
02:11 20.3 °C 12.8 °C 1011.1 hPa NNW 6.1 km/h 11.2 km/h 62% 0.0 mm
03:11 20.3 °C 13.2 °C 1010.5 hPa North 9 km/h 14.8 km/h 64% 0.0 mm
04:11 19.9 °C 12.6 °C 1009.9 hPa NNW 8.3 km/h 11.2 km/h 63% 0.0 mm
05:11 19.6 °C 12.6 °C 1009.9 hPa WNW 10.1 km/h 23 km/h 64% 0.0 mm
06:11 19.4 °C 12.2 °C 1010.0 hPa NNW 4 km/h 5.4 km/h 63% 0.0 mm
07:11 19.1 °C 11.7 °C 1010.3 hPa WNW 5.8 km/h 7.6 km/h 62% 0.0 mm
08:11 24.5 °C 13.9 °C 1010.3 hPa Calm   4 km/h 52% 0.0 mm
09:11 26.2 °C 13.3 °C 1010.4 hPa Calm   2.2 km/h 45% 0.0 mm
10:11 25.1 °C 14 °C 1010.4 hPa Calm   7.6 km/h 50% 0.0 mm
11:11 27.4 °C 15.4 °C 1010.9 hPa Calm   9.4 km/h 48% 0.0 mm
12:11 29 °C 15.9 °C 1011.1 hPa South 5.4 km/h 14.8 km/h 45% 0.0 mm
13:11 29.9 °C 16.3 °C 1011.1 hPa South 9.7 km/h 10.4 km/h 44% 0.0 mm
14:11 30.5 °C 16.9 °C 1011.2 hPa SE 4 km/h 12.2 km/h 44% 0.0 mm
15:11 30.2 °C 17.6 °C 1011.2 hPa Calm   8.6 km/h 47% 0.0 mm
16:11 29.9 °C 17 °C 1010.8 hPa SE 3.2 km/h 7.6 km/h 46% 0.0 mm
17:11 29 °C 17.3 °C 1010.5 hPa South 11.5 km/h 14.4 km/h 49% 0.0 mm
18:11 28.9 °C 17.8 °C 1010.1 hPa Calm   7.2 km/h 51% 0.0 mm
19:11 28 °C 17.5 °C 1010.1 hPa Calm   6.5 km/h 53% 0.0 mm
20:11 26.5 °C 17 °C 1010.2 hPa Calm   2.9 km/h 56% 0.0 mm
21:11 24.8 °C 16.8 °C 1010.7 hPa SW 2.9 km/h 5 km/h 61% 0.0 mm
22:11 23.3 °C 16.3 °C 1011.1 hPa WNW 5.4 km/h 7.6 km/h 65% 0.0 mm
23:11 22.3 °C 15.6 °C 1010.7 hPa NW 10.4 km/h 14.8 km/h 66% 0.0 mm
Observations météo à CASSIS
WU-History script by Weather Underground - 2 mb